Time;durP1;ratioP1;P1;durP2;ratioP2;P2;SDS_P1;SDS_P2;PMS_P1;PMS_P2;Temp;Humidity;BMP_temperature;BMP_pressure;BME280_temperature;BME280_humidity;BME280_pressure;Samples;Min_cycle;Max_cycle;Signal;HPM_P1;HPM_P2
2022/04/01 00:01:26;;;;;;;9.02;2.25;;;;;;;;;;5083924;28;20044;-84
2022/04/01 00:04:10;;;;;;;7.13;2.28;;;;;;;;;;5084172;28;20044;-84
2022/04/01 00:06:56;;;;;;;11.15;2.67;;;;;;;;;;5077190;28;20044;-82
2022/04/01 00:09:42;;;;;;;5.50;2.78;;;;;;;;;;5077105;28;20036;-83
2022/04/01 00:12:27;;;;;;;14.95;3.03;;;;;;;;;;5077982;28;20048;-84
2022/04/01 00:15:14;;;;;;;11.45;2.95;;;;;;;;;;5076731;28;20074;-83
2022/04/01 00:18:00;;;;;;;10.32;3.40;;;;;;;;;;5083777;28;20049;-84
2022/04/01 00:20:45;;;;;;;10.52;3.63;;;;;;;;;;5076876;28;20053;-83
2022/04/01 00:23:31;;;;;;;11.73;3.65;;;;;;;;;;5076575;28;20040;-85
2022/04/01 00:26:17;;;;;;;14.30;3.90;;;;;;;;;;5076957;28;20044;-83
2022/04/01 00:29:14;;;;;;;10.52;4.03;;;;;;;;;;5075595;28;20040;-84
2022/04/01 00:32:03;;;;;;;10.57;3.15;;;;;;;;;;5076837;28;20056;-85
2022/04/01 00:34:49;;;;;;;12.48;3.80;;;;;;;;;;5076209;28;20404;-85
2022/04/01 00:37:35;;;;;;;11.88;3.00;;;;;;;;;;5068804;28;20052;-84
2022/04/01 00:40:21;;;;;;;9.55;3.40;;;;;;;;;;5076717;28;20489;-83
2022/04/01 00:43:10;;;;;;;6.25;2.63;;;;;;;;;;5068129;28;20399;-82
2022/04/01 00:46:00;;;;;;;6.03;2.20;;;;;;;;;;5076324;28;20052;-82
2022/04/01 00:48:45;;;;;;;6.45;2.35;;;;;;;;;;5075569;28;20049;-85
2022/04/01 00:51:31;;;;;;;11.55;3.60;;;;;;;;;;5076308;28;20037;-83
2022/04/01 00:54:17;;;;;;;8.93;3.15;;;;;;;;;;5075258;28;20037;-85
2022/04/01 00:57:07;;;;;;;10.40;2.88;;;;;;;;;;5061254;28;20048;-83
2022/04/01 00:59:54;;;;;;;12.35;3.10;;;;;;;;;;5067940;28;20048;-84
2022/04/01 01:02:50;;;;;;;8.57;3.00;;;;;;;;;;5067582;28;20036;-85
2022/04/01 01:05:36;;;;;;;10.52;2.60;;;;;;;;;;5082028;28;20404;-85
2022/04/01 01:08:21;;;;;;;6.70;2.33;;;;;;;;;;5081962;28;20048;-86
2022/04/01 01:11:08;;;;;;;6.85;2.20;;;;;;;;;;5075395;28;20036;-85
2022/04/01 01:13:59;;;;;;;8.82;2.10;;;;;;;;;;5067607;28;20052;-84
2022/04/01 01:16:46;;;;;;;10.40;3.33;;;;;;;;;;5076017;28;20044;-85
2022/04/01 01:19:32;;;;;;;11.35;3.40;;;;;;;;;;5081939;28;20195;-83
2022/04/01 01:22:19;;;;;;;11.38;3.10;;;;;;;;;;5067273;28;20048;-84
2022/04/01 01:25:08;;;;;;;12.27;3.72;;;;;;;;;;5075243;28;20037;-83
2022/04/01 01:27:53;;;;;;;11.55;3.33;;;;;;;;;;5075620;28;20045;-84
2022/04/01 01:30:41;;;;;;;11.48;3.40;;;;;;;;;;5079860;28;20053;-83
2022/04/01 01:33:26;;;;;;;9.55;2.90;;;;;;;;;;5075645;28;20050;-84
2022/04/01 01:36:12;;;;;;;8.98;3.20;;;;;;;;;;5080693;28;20048;-82
2022/04/01 01:38:57;;;;;;;9.07;3.15;;;;;;;;;;5081817;28;20045;-83
2022/04/01 01:41:45;;;;;;;12.15;3.70;;;;;;;;;;5081046;28;20060;-82
2022/04/01 01:44:30;;;;;;;13.63;4.15;;;;;;;;;;5080790;28;20488;-83
2022/04/01 01:47:16;;;;;;;10.93;4.03;;;;;;;;;;5081594;28;20044;-82
2022/04/01 01:56:10;;;;;;;11.13;3.50;;;;;;;;;;5075093;28;20044;-83
2022/04/01 01:59:00;;;;;;;8.35;3.40;;;;;;;;;;5084908;28;20044;-83
2022/04/01 02:01:45;;;;;;;13.35;3.63;;;;;;;;;;5089023;28;20064;-81
2022/04/01 02:04:30;;;;;;;13.43;3.53;;;;;;;;;;5096343;28;20481;-81
2022/04/01 02:07:17;;;;;;;8.23;2.72;;;;;;;;;;5087300;28;20476;-84
2022/04/01 02:10:03;;;;;;;5.88;2.50;;;;;;;;;;5077230;28;20074;-82
2022/04/01 02:12:48;;;;;;;9.18;2.30;;;;;;;;;;5080298;28;20060;-81
2022/04/01 02:15:36;;;;;;;10.45;2.67;;;;;;;;;;5080504;28;20044;-83
2022/04/01 02:18:24;;;;;;;12.55;2.78;;;;;;;;;;5080011;28;20040;-85
2022/04/01 02:21:15;;;;;;;9.43;3.10;;;;;;;;;;5080387;28;20049;-83
2022/04/01 02:24:00;;;;;;;8.82;2.83;;;;;;;;;;5080480;28;20044;-84
2022/04/01 02:26:47;;;;;;;5.05;2.17;;;;;;;;;;5080128;28;20049;-83
2022/04/01 02:29:34;;;;;;;10.25;2.80;;;;;;;;;;5080563;28;20070;-81
2022/04/01 02:32:42;;;;;;;8.90;2.70;;;;;;;;;;5074606;28;20048;-83
2022/04/01 02:35:59;;;;;;;10.60;2.88;;;;;;;;;;5070939;28;20045;-84
2022/04/01 02:38:45;;;;;;;8.90;3.28;;;;;;;;;;5065945;28;20476;-83
2022/04/01 02:41:32;;;;;;;52.25;19.38;;;;;;;;;;5079720;28;20048;-83
2022/04/01 02:44:17;;;;;;;41.00;16.90;;;;;;;;;;5066139;28;20045;-83
2022/04/01 02:47:04;;;;;;;14.98;6.53;;;;;;;;;;5072640;28;20139;-82
2022/04/01 02:49:50;;;;;;;20.83;6.10;;;;;;;;;;5080234;28;20394;-85
2022/04/01 02:52:35;;;;;;;12.20;5.30;;;;;;;;;;5079685;28;20478;-84
2022/04/01 02:55:22;;;;;;;19.30;4.05;;;;;;;;;;5079230;28;20045;-83
2022/04/01 02:58:09;;;;;;;19.05;4.95;;;;;;;;;;5065361;28;20401;-83
2022/04/01 03:00:55;;;;;;;15.77;4.70;;;;;;;;;;5079635;28;20056;-83
2022/04/01 03:03:42;;;;;;;13.55;4.10;;;;;;;;;;5065196;28;20044;-83
2022/04/01 03:06:30;;;;;;;19.35;4.13;;;;;;;;;;5079915;28;20040;-82
2022/04/01 03:09:16;;;;;;;18.38;4.28;;;;;;;;;;5079240;28;20052;-83
2022/04/01 03:12:11;;;;;;;15.18;3.92;;;;;;;;;;5079774;28;20044;-82
2022/04/01 03:15:08;;;;;;;15.90;5.47;;;;;;;;;;5080323;28;20044;-83
2022/04/01 03:18:29;;;;;;;14.95;5.43;;;;;;;;;;5018402;28;20050;-83
2022/04/01 03:21:15;;;;;;;13.02;4.65;;;;;;;;;;5065306;28;20048;-82
2022/04/01 03:24:03;;;;;;;15.25;3.60;;;;;;;;;;5079153;28;20505;-83
2022/04/01 03:26:49;;;;;;;10.93;3.63;;;;;;;;;;5079620;28;20040;-83
2022/04/01 03:29:36;;;;;;;22.17;5.03;;;;;;;;;;5078824;28;20044;-83
2022/04/01 03:32:21;;;;;;;22.65;4.90;;;;;;;;;;5059560;28;20052;-83
2022/04/01 03:35:09;;;;;;;25.20;5.43;;;;;;;;;;5079252;28;20429;-82
2022/04/01 03:37:55;;;;;;;18.75;5.45;;;;;;;;;;5073391;28;20044;-82
2022/04/01 03:40:41;;;;;;;22.17;4.70;;;;;;;;;;5073938;28;20041;-82
2022/04/01 03:43:29;;;;;;;15.43;3.35;;;;;;;;;;5078814;28;20424;-83
2022/04/01 03:46:22;;;;;;;30.05;6.25;;;;;;;;;;5079457;28;20045;-83
2022/04/01 03:49:11;;;;;;;19.15;4.78;;;;;;;;;;5079568;28;20045;-83
2022/04/01 03:51:58;;;;;;;20.35;4.97;;;;;;;;;;5078592;28;20053;-81
2022/04/01 03:54:47;;;;;;;16.92;3.22;;;;;;;;;;5079150;28;20049;-83
2022/04/01 03:57:55;;;;;;;12.77;3.97;;;;;;;;;;5073045;28;20044;-84
2022/04/01 04:01:04;;;;;;;26.00;5.22;;;;;;;;;;5086368;28;20055;-83
2022/04/01 04:03:50;;;;;;;16.83;4.40;;;;;;;;;;5099610;28;20040;-83
2022/04/01 04:06:39;;;;;;;11.55;4.32;;;;;;;;;;5084758;28;20040;-82
2022/04/01 04:09:25;;;;;;;22.13;5.95;;;;;;;;;;5099583;28;20047;-84
2022/04/01 04:12:13;;;;;;;24.30;5.07;;;;;;;;;;5102558;28;20488;-83
2022/04/01 04:15:03;;;;;;;28.13;5.05;;;;;;;;;;5088605;28;20053;-83
2022/04/01 04:17:56;;;;;;;19.17;4.72;;;;;;;;;;5084743;28;20040;-86
2022/04/01 04:20:55;;;;;;;23.48;5.63;;;;;;;;;;5086877;28;20052;-83
2022/04/01 04:23:47;;;;;;;28.77;5.68;;;;;;;;;;5079055;28;20485;-84
2022/04/01 04:26:39;;;;;;;23.85;5.28;;;;;;;;;;5079828;28;20044;-83
2022/04/01 04:29:27;;;;;;;26.40;5.47;;;;;;;;;;5092096;28;20044;-83
2022/04/01 04:32:32;;;;;;;22.63;5.70;;;;;;;;;;5095652;28;20040;-82
2022/04/01 04:35:20;;;;;;;24.80;5.45;;;;;;;;;;5088500;28;20044;-84
2022/04/01 04:38:07;;;;;;;28.98;6.20;;;;;;;;;;5088393;28;20048;-84
2022/04/01 04:40:54;;;;;;;26.70;5.45;;;;;;;;;;5087776;28;20047;-83
2022/04/01 04:43:44;;;;;;;25.20;6.88;;;;;;;;;;5087714;28;20048;-83
2022/04/01 04:46:34;;;;;;;32.65;7.00;;;;;;;;;;5075626;28;20044;-82
2022/04/01 04:49:21;;;;;;;28.33;6.50;;;;;;;;;;5085564;28;20045;-80
2022/04/01 04:52:08;;;;;;;21.83;5.88;;;;;;;;;;5088324;28;20048;-81
2022/04/01 04:55:14;;;;;;;26.95;6.55;;;;;;;;;;5102500;28;20048;-85
2022/04/01 04:58:21;;;;;;;24.65;6.45;;;;;;;;;;5088703;28;20043;-81
2022/04/01 05:01:32;;;;;;;27.65;5.70;;;;;;;;;;5098953;28;20044;-79
2022/04/01 05:04:25;;;;;;;30.02;6.45;;;;;;;;;;5085585;28;20044;-81
2022/04/01 05:07:51;;;;;;;33.38;6.85;;;;;;;;;;5100196;28;20500;-81
2022/04/01 05:11:26;;;;;;;31.23;8.98;;;;;;;;;;5081308;28;20064;-83
2022/04/01 05:14:42;;;;;;;36.35;10.05;;;;;;;;;;5102115;28;20048;-82
2022/04/01 05:18:06;;;;;;;47.47;10.15;;;;;;;;;;5087359;28;20408;-81
2022/04/01 05:21:01;;;;;;;31.92;7.57;;;;;;;;;;5087697;28;20051;-80
2022/04/01 05:23:57;;;;;;;51.70;9.15;;;;;;;;;;5086810;28;20040;-82
2022/04/01 05:26:45;;;;;;;42.42;8.95;;;;;;;;;;5087080;28;20056;-83
2022/04/01 05:29:42;;;;;;;24.20;5.80;;;;;;;;;;5101905;28;20127;-80
2022/04/01 05:32:38;;;;;;;32.80;7.10;;;;;;;;;;5080790;28;20048;-80
2022/04/01 05:35:26;;;;;;;29.88;8.13;;;;;;;;;;5100998;28;20044;-81
2022/04/01 05:38:11;;;;;;;38.53;9.63;;;;;;;;;;5086486;28;20047;-81
2022/04/01 05:40:59;;;;;;;40.22;10.98;;;;;;;;;;5101224;28;20055;-82
2022/04/01 05:43:48;;;;;;;39.30;8.88;;;;;;;;;;5086527;28;20044;-81
2022/04/01 05:46:40;;;;;;;39.47;8.65;;;;;;;;;;5101248;28;20400;-80
2022/04/01 05:49:31;;;;;;;32.65;7.43;;;;;;;;;;5094717;28;20048;-82
2022/04/01 05:52:17;;;;;;;39.38;9.25;;;;;;;;;;5086262;28;20044;-82
2022/04/01 05:55:02;;;;;;;40.45;7.50;;;;;;;;;;5086807;28;20043;-80
2022/04/01 05:57:48;;;;;;;34.83;8.02;;;;;;;;;;5094529;28;20036;-81
2022/04/01 06:00:44;;;;;;;32.55;7.90;;;;;;;;;;5100652;28;20044;-82
2022/04/01 06:04:08;;;;;;;32.67;7.93;;;;;;;;;;5085989;28;20044;-83
2022/04/01 06:07:10;;;;;;;22.05;6.13;;;;;;;;;;5086382;28;20052;-81
2022/04/01 06:10:09;;;;;;;29.05;7.82;;;;;;;;;;5087676;28;20044;-81
2022/04/01 06:13:43;;;;;;;37.58;7.65;;;;;;;;;;5099777;28;20052;-80
2022/04/01 06:16:59;;;;;;;29.30;7.50;;;;;;;;;;5099750;28;20492;-80
2022/04/01 06:19:51;;;;;;;48.17;9.88;;;;;;;;;;5099451;28;20396;-81
2022/04/01 06:22:59;;;;;;;38.38;9.77;;;;;;;;;;5092073;28;20048;-81
2022/04/01 06:25:53;;;;;;;26.17;7.75;;;;;;;;;;5091682;28;20047;-82
2022/04/01 06:28:45;;;;;;;;;;;;;;;;;;5091626;28;20416;-81
2022/04/01 06:31:31;;;;;;;40.72;8.02;;;;;;;;;;5093872;28;19916;-82
2022/04/01 06:34:36;;;;;;;24.50;6.30;;;;;;;;;;5085290;28;20403;-82
2022/04/01 06:37:59;;;;;;;43.00;7.43;;;;;;;;;;5086081;28;20396;-82
2022/04/01 06:40:52;;;;;;;34.50;9.45;;;;;;;;;;5085953;28;20052;-81
2022/04/01 06:43:43;;;;;;;36.60;9.45;;;;;;;;;;5099863;28;20048;-81
2022/04/01 06:47:07;;;;;;;46.33;13.00;;;;;;;;;;5037825;28;20041;-81
2022/04/01 06:49:53;;;;;;;34.72;7.82;;;;;;;;;;5038252;28;20486;-81
2022/04/01 06:52:56;;;;;;;36.55;7.45;;;;;;;;;;5092469;28;20044;-83
2022/04/01 06:56:00;;;;;;;37.13;10.13;;;;;;;;;;5093635;28;20036;-80
2022/04/01 06:58:48;;;;;;;52.08;12.05;;;;;;;;;;5085464;28;20051;-81
2022/04/01 07:01:34;;;;;;;42.17;10.48;;;;;;;;;;5093830;28;20424;-82
2022/04/01 07:04:20;;;;;;;42.53;9.65;;;;;;;;;;5094101;28;20048;-83
2022/04/01 07:07:05;;;;;;;43.58;10.57;;;;;;;;;;5100558;28;20044;-80
2022/04/01 07:09:51;;;;;;;51.83;12.02;;;;;;;;;;5094008;28;20036;-80
2022/04/01 07:12:37;;;;;;;22.77;6.18;;;;;;;;;;5100383;28;20047;-82
2022/04/01 07:15:21;;;;;;;24.23;4.43;;;;;;;;;;5100463;28;20048;-82
2022/04/01 07:18:07;;;;;;;17.65;3.78;;;;;;;;;;5093711;28;20052;-81
2022/04/01 07:20:54;;;;;;;24.10;5.60;;;;;;;;;;5101149;28;20477;-81
2022/04/01 07:23:40;;;;;;;17.05;4.00;;;;;;;;;;5094018;28;20051;-82
2022/04/01 07:26:25;;;;;;;17.63;4.60;;;;;;;;;;5103357;28;20044;-80
2022/04/01 07:29:14;;;;;;;20.60;5.90;;;;;;;;;;5104763;28;20044;-82
2022/04/01 07:35:14;;;;;;;17.60;5.47;;;;;;;;;;5101380;28;20052;-81
2022/04/01 07:37:59;;;;;;;16.05;5.72;;;;;;;;;;5097436;28;20490;-82
2022/04/01 07:40:45;;;;;;;20.73;5.20;;;;;;;;;;5100506;28;20052;-81
2022/04/01 07:43:30;;;;;;;32.05;10.75;;;;;;;;;;5093465;28;20047;-82
2022/04/01 07:46:16;;;;;;;23.30;10.80;;;;;;;;;;5096412;28;20131;-83
2022/04/01 07:49:02;;;;;;;31.63;8.43;;;;;;;;;;5104326;28;20396;-84
2022/04/01 07:51:47;;;;;;;20.25;7.03;;;;;;;;;;5104271;28;20044;-82
2022/04/01 07:54:34;;;;;;;23.35;8.85;;;;;;;;;;5104520;28;20400;-82
2022/04/01 07:57:19;;;;;;;22.20;4.85;;;;;;;;;;5104191;28;20044;-82
2022/04/01 08:00:07;;;;;;;22.77;5.30;;;;;;;;;;5097232;28;20040;-81
2022/04/01 08:03:02;;;;;;;16.52;4.40;;;;;;;;;;5103598;28;20416;-83
2022/04/01 08:05:48;;;;;;;22.27;5.53;;;;;;;;;;5097152;28;20051;-83
2022/04/01 08:08:34;;;;;;;20.10;5.07;;;;;;;;;;5097144;28;20044;-81
2022/04/01 08:11:19;;;;;;;64.75;5.60;;;;;;;;;;5103379;28;20040;-80
2022/04/01 08:14:05;;;;;;;20.33;4.43;;;;;;;;;;5096908;28;20044;-79
2022/04/01 08:16:51;;;;;;;19.92;4.55;;;;;;;;;;5103539;28;20047;-85
2022/04/01 08:19:36;;;;;;;20.15;4.82;;;;;;;;;;5094610;28;20040;-84
2022/04/01 08:22:22;;;;;;;14.15;4.15;;;;;;;;;;5092327;28;20052;-82
2022/04/01 08:25:08;;;;;;;17.80;6.18;;;;;;;;;;5101041;28;20384;-84
2022/04/01 08:27:53;;;;;;;18.42;4.43;;;;;;;;;;5103467;28;20044;-82
2022/04/01 08:30:39;;;;;;;15.93;3.90;;;;;;;;;;5096079;28;20052;-83
2022/04/01 08:33:24;;;;;;;21.92;4.65;;;;;;;;;;5100581;28;20044;-83
2022/04/01 08:36:10;;;;;;;18.00;5.93;;;;;;;;;;5093138;28;20044;-82
2022/04/01 08:38:55;;;;;;;17.65;4.40;;;;;;;;;;5103239;28;20043;-79
2022/04/01 08:41:41;;;;;;;12.20;3.55;;;;;;;;;;5096945;28;20052;-80
2022/04/01 08:44:27;;;;;;;14.63;3.00;;;;;;;;;;5092651;28;20036;-81
2022/04/01 08:47:15;;;;;;;14.40;3.47;;;;;;;;;;5094860;28;20480;-81
2022/04/01 08:50:01;;;;;;;20.38;4.05;;;;;;;;;;5097894;28;20464;-81
2022/04/01 08:52:46;;;;;;;18.30;4.10;;;;;;;;;;5095607;28;20434;-81
2022/04/01 08:55:34;;;;;;;19.02;4.10;;;;;;;;;;5095742;28;20044;-82
2022/04/01 08:58:20;;;;;;;14.77;3.67;;;;;;;;;;5093245;28;20044;-83
2022/04/01 09:01:07;;;;;;;12.43;3.95;;;;;;;;;;5102383;28;20119;-82
2022/04/01 09:03:55;;;;;;;13.18;3.05;;;;;;;;;;5102196;28;20484;-80
2022/04/01 09:06:41;;;;;;;13.55;3.25;;;;;;;;;;5102640;28;20052;-80
2022/04/01 09:09:29;;;;;;;10.48;3.22;;;;;;;;;;5098044;28;20063;-83
2022/04/01 09:12:16;;;;;;;12.60;3.20;;;;;;;;;;5074523;28;20048;-82
2022/04/01 09:15:03;;;;;;;17.48;4.35;;;;;;;;;;5075778;28;20060;-81
2022/04/01 09:17:50;;;;;;;11.52;3.55;;;;;;;;;;5093298;28;20044;-82
2022/04/01 09:20:51;;;;;;;12.15;3.30;;;;;;;;;;5089841;28;20373;-82
2022/04/01 09:23:36;;;;;;;10.80;2.90;;;;;;;;;;5075045;28;20052;-81
2022/04/01 09:26:30;;;;;;;8.85;2.58;;;;;;;;;;5074972;28;20485;-81
2022/04/01 09:29:16;;;;;;;10.45;3.72;;;;;;;;;;5081923;28;20048;-82
2022/04/01 09:32:06;;;;;;;19.05;3.17;;;;;;;;;;5079940;28;20404;-82
2022/04/01 09:34:57;;;;;;;19.10;5.72;;;;;;;;;;5096221;28;20041;-83
2022/04/01 09:37:47;;;;;;;12.27;3.45;;;;;;;;;;5082851;28;20040;-84
2022/04/01 09:40:35;;;;;;;14.18;2.63;;;;;;;;;;5073717;28;20044;-81
2022/04/01 09:43:24;;;;;;;11.32;2.67;;;;;;;;;;5090401;28;20048;-82
2022/04/01 09:46:24;;;;;;;8.63;2.10;;;;;;;;;;5102356;28;20044;-81
2022/04/01 09:49:12;;;;;;;10.88;3.40;;;;;;;;;;5102225;28;20040;-82
2022/04/01 09:51:58;;;;;;;12.73;2.45;;;;;;;;;;5102237;28;20044;-83
2022/04/01 09:54:54;;;;;;;11.48;2.70;;;;;;;;;;5092039;28;20044;-83
2022/04/01 09:57:38;;;;;;;13.73;2.95;;;;;;;;;;5078612;28;20480;-81
2022/04/01 10:00:27;;;;;;;11.02;4.60;;;;;;;;;;5081677;28;20040;-82
2022/04/01 10:03:15;;;;;;;10.45;2.05;;;;;;;;;;5081265;28;20041;-83
2022/04/01 10:06:01;;;;;;;10.63;4.22;;;;;;;;;;5074261;28;20049;-84
2022/04/01 10:08:48;;;;;;;11.75;3.22;;;;;;;;;;5080853;28;20049;-83
2022/04/01 10:11:36;;;;;;;8.27;1.92;;;;;;;;;;5086093;28;20045;-84
2022/04/01 10:14:26;;;;;;;9.85;5.60;;;;;;;;;;5091387;28;20024;-80
2022/04/01 10:17:14;;;;;;;12.85;3.40;;;;;;;;;;5097450;28;20048;-81
2022/04/01 10:20:02;;;;;;;4.03;1.33;;;;;;;;;;5085758;28;20408;-82
2022/04/01 10:22:52;;;;;;;7.70;1.80;;;;;;;;;;5084450;28;20045;-82
2022/04/01 10:26:14;;;;;;;3.17;1.33;;;;;;;;;;5091311;28;20052;-82
2022/04/01 10:29:02;;;;;;;3.50;1.50;;;;;;;;;;5092309;28;20048;-83
2022/04/01 10:31:54;;;;;;;2.90;1.30;;;;;;;;;;5094818;28;20048;-82
2022/04/01 10:34:46;;;;;;;5.38;1.27;;;;;;;;;;5094555;28;20048;-80
2022/04/01 10:37:33;;;;;;;5.00;1.65;;;;;;;;;;5093985;28;20036;-82
2022/04/01 10:40:18;;;;;;;4.18;1.20;;;;;;;;;;5101255;28;20044;-82
2022/04/01 10:43:13;;;;;;;6.75;1.60;;;;;;;;;;5098886;28;20060;-83
2022/04/01 10:46:04;;;;;;;3.55;1.45;;;;;;;;;;5094582;28;20043;-81
2022/04/01 10:52:13;;;;;;;3.65;1.33;;;;;;;;;;5100894;28;20396;-83
2022/04/01 10:55:11;;;;;;;5.30;1.58;;;;;;;;;;5094334;28;20427;-81
2022/04/01 10:58:08;;;;;;;5.07;2.00;;;;;;;;;;5075862;28;20044;-81
2022/04/01 11:00:53;;;;;;;4.10;1.45;;;;;;;;;;5079941;28;20048;-81
2022/04/01 11:03:38;;;;;;;3.08;1.40;;;;;;;;;;5096514;28;20052;-82
2022/04/01 11:06:27;;;;;;;3.35;1.80;;;;;;;;;;5099803;28;20044;-81
2022/04/01 11:09:31;;;;;;;5.93;1.92;;;;;;;;;;5076188;28;20041;-81
2022/04/01 11:15:07;;;;;;;6.57;2.38;;;;;;;;;;5099317;28;20048;-82
2022/04/01 11:17:56;;;;;;;6.55;2.60;;;;;;;;;;5080792;28;20048;-83
2022/04/01 11:20:55;;;;;;;7.32;2.38;;;;;;;;;;5088549;28;20044;-81
2022/04/01 11:23:41;;;;;;;7.20;2.20;;;;;;;;;;5081149;28;20040;-82
2022/04/01 11:26:52;;;;;;;6.97;2.80;;;;;;;;;;5083706;28;20064;-82
2022/04/01 11:29:39;;;;;;;6.15;1.60;;;;;;;;;;5080722;28;20500;-82
2022/04/01 11:32:24;;;;;;;6.70;2.15;;;;;;;;;;5079332;28;20053;-82
2022/04/01 11:35:12;;;;;;;10.63;2.88;;;;;;;;;;5092591;28;20040;-81
2022/04/01 11:37:59;;;;;;;9.43;2.00;;;;;;;;;;5099746;28;20040;-81
2022/04/01 11:40:46;;;;;;;4.60;2.08;;;;;;;;;;5095219;28;20048;-81
2022/04/01 11:43:33;;;;;;;5.70;2.25;;;;;;;;;;5094042;28;20052;-81
2022/04/01 11:46:19;;;;;;;9.73;2.28;;;;;;;;;;5099447;28;20388;-81
2022/04/01 11:49:08;;;;;;;5.43;1.48;;;;;;;;;;5081407;28;20047;-80
2022/04/01 11:51:53;;;;;;;5.63;1.50;;;;;;;;;;5091421;28;20056;-82
2022/04/01 11:54:39;;;;;;;6.82;2.30;;;;;;;;;;5095944;28;20040;-81
2022/04/01 11:57:25;;;;;;;6.80;2.65;;;;;;;;;;5087792;28;20044;-80
2022/04/01 12:00:12;;;;;;;4.97;1.48;;;;;;;;;;5087959;28;20040;-79
2022/04/01 12:02:58;;;;;;;7.20;2.22;;;;;;;;;;5090328;28;20044;-84
2022/04/01 12:05:43;;;;;;;4.05;1.73;;;;;;;;;;5088186;28;20044;-82
2022/04/01 12:08:46;;;;;;;7.70;2.80;;;;;;;;;;5088005;28;20044;-82
2022/04/01 12:11:42;;;;;;;4.88;1.85;;;;;;;;;;5092482;28;20040;-82
2022/04/01 12:14:28;;;;;;;6.13;2.67;;;;;;;;;;5098344;28;20031;-82
2022/04/01 12:17:14;;;;;;;5.90;1.90;;;;;;;;;;5076714;28;20036;-82
2022/04/01 12:20:08;;;;;;;9.13;2.90;;;;;;;;;;5073442;28;20103;-82
2022/04/01 12:22:55;;;;;;;6.65;2.28;;;;;;;;;;5093114;28;20036;-81
2022/04/01 12:25:43;;;;;;;14.15;3.25;;;;;;;;;;5090854;28;20048;-81
2022/04/01 12:28:40;;;;;;;4.32;2.00;;;;;;;;;;5099582;28;20044;-80
2022/04/01 12:31:27;;;;;;;4.18;1.58;;;;;;;;;;5078155;28;20049;-82
2022/04/01 12:34:14;;;;;;;7.50;1.70;;;;;;;;;;5081617;28;20044;-81
2022/04/01 12:37:05;;;;;;;5.90;1.67;;;;;;;;;;5103302;28;20040;-81
2022/04/01 12:39:58;;;;;;;7.72;3.63;;;;;;;;;;5103158;28;20040;-80
2022/04/01 12:42:48;;;;;;;7.47;2.88;;;;;;;;;;5103312;28;20055;-81
2022/04/01 12:45:34;;;;;;;5.45;2.38;;;;;;;;;;5103028;28;20048;-81
2022/04/01 12:48:20;;;;;;;9.05;2.55;;;;;;;;;;5103179;28;20445;-79
2022/04/01 12:51:06;;;;;;;7.45;2.40;;;;;;;;;;5102664;28;20047;-80
2022/04/01 12:53:59;;;;;;;5.25;1.70;;;;;;;;;;5084131;28;20052;-80
2022/04/01 12:56:50;;;;;;;3.53;1.97;;;;;;;;;;5099146;28;20036;-80
2022/04/01 12:59:38;;;;;;;5.13;1.88;;;;;;;;;;5096258;28;20040;-79
2022/04/01 13:02:25;;;;;;;6.07;1.88;;;;;;;;;;5078521;28;20032;-80
2022/04/01 13:05:13;;;;;;;5.05;2.00;;;;;;;;;;5075218;28;20457;-81
2022/04/01 13:08:02;;;;;;;4.90;2.10;;;;;;;;;;5061225;28;20040;-80
2022/04/01 13:10:51;;;;;;;3.25;1.60;;;;;;;;;;5087846;28;20044;-80
2022/04/01 13:13:36;;;;;;;4.00;1.50;;;;;;;;;;5101344;28;20473;-82
2022/04/01 13:16:22;;;;;;;5.82;1.27;;;;;;;;;;5095995;28;20036;-80
2022/04/01 13:19:27;;;;;;;3.60;1.58;;;;;;;;;;5101399;28;20052;-79
2022/04/01 13:22:12;;;;;;;3.43;1.27;;;;;;;;;;5074355;28;20041;-79
2022/04/01 13:24:57;;;;;;;3.35;1.10;;;;;;;;;;5080915;28;20056;-80
2022/04/01 13:27:46;;;;;;;4.10;1.13;;;;;;;;;;5082009;28;20056;-80
2022/04/01 13:30:38;;;;;;;4.45;2.10;;;;;;;;;;5086515;28;20040;-79
2022/04/01 13:33:24;;;;;;;4.53;2.10;;;;;;;;;;5080025;28;20048;-78
2022/04/01 13:36:09;;;;;;;5.40;2.30;;;;;;;;;;5085065;28;20408;-77
2022/04/01 13:38:58;;;;;;;4.55;2.20;;;;;;;;;;5094850;28;20044;-80
2022/04/01 13:41:45;;;;;;;5.47;2.25;;;;;;;;;;5099013;28;20040;-78
2022/04/01 13:44:31;;;;;;;4.63;1.63;;;;;;;;;;5094487;28;20047;-80
2022/04/01 13:47:17;;;;;;;7.97;2.10;;;;;;;;;;5101896;28;20048;-79
2022/04/01 13:50:02;;;;;;;4.40;1.45;;;;;;;;;;5100907;28;20040;-80
2022/04/01 13:52:47;;;;;;;2.88;1.40;;;;;;;;;;5085919;28;20052;-79
2022/04/01 13:55:32;;;;;;;9.40;1.67;;;;;;;;;;5079146;28;20041;-80
2022/04/01 13:58:18;;;;;;;12.07;1.83;;;;;;;;;;5094558;28;20040;-80
2022/04/01 14:01:04;;;;;;;3.03;1.25;;;;;;;;;;5086505;28;20048;-80
2022/04/01 14:03:50;;;;;;;2.50;1.20;;;;;;;;;;5095733;28;20044;-79
2022/04/01 14:06:35;;;;;;;12.70;2.90;;;;;;;;;;5101440;28;20044;-82
2022/04/01 14:09:23;;;;;;;2.53;1.70;;;;;;;;;;5101496;28;20056;-82
2022/04/01 14:12:09;;;;;;;3.85;2.13;;;;;;;;;;5094497;28;20040;-80
2022/04/01 14:14:54;;;;;;;5.80;1.90;;;;;;;;;;5101627;28;20400;-82
2022/04/01 14:17:40;;;;;;;7.18;1.90;;;;;;;;;;5094531;28;20036;-81
2022/04/01 14:20:28;;;;;;;8.73;3.00;;;;;;;;;;5093235;28;20488;-78
2022/04/01 14:23:14;;;;;;;2.05;1.50;;;;;;;;;;5079655;28;20048;-84
2022/04/01 14:26:04;;;;;;;5.88;2.83;;;;;;;;;;5074300;28;20048;-83
2022/04/01 14:28:50;;;;;;;4.15;1.80;;;;;;;;;;5080699;28;20397;-82
2022/04/01 14:31:38;;;;;;;8.68;3.13;;;;;;;;;;5061997;28;20053;-83
2022/04/01 14:34:42;;;;;;;3.90;2.08;;;;;;;;;;5067176;28;20436;-82
2022/04/01 14:37:27;;;;;;;0.75;0.65;;;;;;;;;;5092907;28;20386;-80
2022/04/01 14:40:14;;;;;;;6.25;2.28;;;;;;;;;;5100876;28;20139;-81
2022/04/01 14:43:00;;;;;;;2.92;1.75;;;;;;;;;;5100601;28;20048;-81
2022/04/01 14:45:46;;;;;;;3.72;1.60;;;;;;;;;;5093573;28;20036;-82
2022/04/01 14:48:33;;;;;;;6.90;1.75;;;;;;;;;;5099630;28;20477;-82
2022/04/01 14:51:18;;;;;;;10.48;2.70;;;;;;;;;;5090950;28;20044;-82
2022/04/01 14:54:04;;;;;;;8.68;3.53;;;;;;;;;;5090905;28;20036;-82
2022/04/01 14:56:51;;;;;;;2.75;1.20;;;;;;;;;;5097852;28;20044;-80
2022/04/01 14:59:36;;;;;;;2.42;1.48;;;;;;;;;;5084467;28;20040;-80
2022/04/01 15:02:22;;;;;;;2.10;1.50;;;;;;;;;;5097703;28;20039;-82
2022/04/01 15:05:15;;;;;;;3.50;1.98;;;;;;;;;;5092375;28;20396;-80
2022/04/01 15:08:00;;;;;;;2.15;1.13;;;;;;;;;;5090595;28;20488;-81
2022/04/01 15:10:46;;;;;;;8.45;2.40;;;;;;;;;;5097811;28;20048;-82
2022/04/01 15:13:32;;;;;;;6.95;1.80;;;;;;;;;;5083508;28;20047;-82
2022/04/01 15:16:18;;;;;;;3.40;1.45;;;;;;;;;;5100006;28;20044;-82
2022/04/01 15:19:03;;;;;;;10.80;3.20;;;;;;;;;;5098048;28;20048;-84
2022/04/01 15:21:49;;;;;;;10.20;2.00;;;;;;;;;;5091665;28;20040;-83
2022/04/01 15:24:34;;;;;;;2.05;1.10;;;;;;;;;;5099118;28;20048;-82
2022/04/01 15:27:20;;;;;;;1.92;1.35;;;;;;;;;;5091434;28;20047;-79
2022/04/01 15:30:06;;;;;;;2.60;0.98;;;;;;;;;;5100088;28;20048;-82
2022/04/01 15:32:52;;;;;;;4.40;2.72;;;;;;;;;;5092985;28;20040;-81
2022/04/01 15:35:38;;;;;;;13.10;5.75;;;;;;;;;;5093871;28;20040;-82
2022/04/01 15:38:35;;;;;;;3.45;2.65;;;;;;;;;;5100436;28;20044;-84
2022/04/01 15:41:22;;;;;;;6.80;2.33;;;;;;;;;;5105257;28;20480;-83
2022/04/01 15:44:13;;;;;;;10.27;2.55;;;;;;;;;;5100748;28;20055;-81
2022/04/01 15:46:59;;;;;;;5.70;1.92;;;;;;;;;;5101678;28;20040;-82
2022/04/01 15:49:46;;;;;;;8.27;2.90;;;;;;;;;;5093273;28;20037;-80
2022/04/01 15:52:34;;;;;;;10.20;3.45;;;;;;;;;;5084117;28;20036;-82
2022/04/01 15:55:23;;;;;;;5.70;2.58;;;;;;;;;;5093100;28;20404;-81
2022/04/01 15:58:11;;;;;;;10.80;2.40;;;;;;;;;;5092386;28;20040;-82
2022/04/01 16:00:59;;;;;;;6.07;2.50;;;;;;;;;;5091667;28;20051;-80
2022/04/01 16:03:47;;;;;;;3.05;1.48;;;;;;;;;;5096537;28;20048;-83
2022/04/01 16:06:33;;;;;;;1.38;1.05;;;;;;;;;;5092624;28;20043;-81
2022/04/01 16:09:20;;;;;;;3.35;1.60;;;;;;;;;;5102626;28;20040;-81
2022/04/01 16:12:10;;;;;;;5.35;2.08;;;;;;;;;;5093777;28;20048;-85
2022/04/01 16:14:59;;;;;;;2.05;1.48;;;;;;;;;;5095141;28;20032;-82
2022/04/01 16:17:44;;;;;;;5.10;2.50;;;;;;;;;;5100716;28;20048;-83
2022/04/01 16:20:30;;;;;;;4.80;1.83;;;;;;;;;;5086325;28;20043;-84
2022/04/01 16:23:16;;;;;;;4.50;2.20;;;;;;;;;;5093406;28;20044;-82
2022/04/01 16:26:01;;;;;;;7.15;3.00;;;;;;;;;;5095192;28;20044;-83
2022/04/01 16:28:47;;;;;;;13.43;4.15;;;;;;;;;;5093089;28;20048;-80
2022/04/01 16:31:32;;;;;;;11.57;4.07;;;;;;;;;;5079978;28;20048;-84
2022/04/01 16:34:18;;;;;;;16.52;6.13;;;;;;;;;;5094682;28;20036;-82
2022/04/01 16:37:03;;;;;;;13.07;5.35;;;;;;;;;;5103133;28;20040;-84
2022/04/01 16:39:49;;;;;;;6.32;4.00;;;;;;;;;;5081810;28;20040;-83
2022/04/01 16:42:35;;;;;;;11.52;5.40;;;;;;;;;;5096613;28;20048;-83
2022/04/01 16:45:20;;;;;;;8.77;5.97;;;;;;;;;;5103226;28;20047;-84
2022/04/01 16:48:07;;;;;;;10.35;5.35;;;;;;;;;;5096172;28;20044;-80
2022/04/01 16:50:53;;;;;;;7.28;4.53;;;;;;;;;;5103236;28;20040;-84
2022/04/01 16:53:38;;;;;;;6.38;3.55;;;;;;;;;;5102603;28;20052;-82
2022/04/01 16:56:24;;;;;;;13.57;4.93;;;;;;;;;;5102470;28;20044;-83
2022/04/01 16:59:09;;;;;;;8.65;5.10;;;;;;;;;;5103322;28;20039;-83
2022/04/01 17:01:54;;;;;;;20.88;8.25;;;;;;;;;;5101330;28;20048;-83
2022/04/01 17:04:40;;;;;;;12.48;6.10;;;;;;;;;;5102755;28;20052;-81